Time;durP1;ratioP1;P1;durP2;ratioP2;P2;SDS_P1;SDS_P2;PMS_P1;PMS_P2;Temp;Humidity;BMP_temperature;BMP_pressure;BME280_temperature;BME280_humidity;BME280_pressure;Samples;Min_cycle;Max_cycle;Signal;HPM_P1;HPM_P2
2021/06/12 00:01:51;;;;;;;15.35;10.70;;;;;;;-139.48;100.00;61774.03;5076264;28;20176;-67
2021/06/12 00:04:35;;;;;;;12.52;10.75;;;;;;;-139.48;100.00;61774.03;5075171;28;20098;-67
2021/06/12 00:07:19;;;;;;;11.63;10.38;;;;;;;-139.48;100.00;61774.03;5075745;28;20129;-67
2021/06/12 00:10:04;;;;;;;;;;;;;;;-139.48;100.00;61774.03;5075643;28;20055;-67
2021/06/12 00:12:49;;;;;;;14.80;11.00;;;;;;;-139.48;100.00;61774.03;5074841;28;20384;-67
2021/06/12 00:15:34;;;;;;;11.20;10.18;;;;;;;-139.48;100.00;61774.03;5074924;28;20043;-67
2021/06/12 00:18:18;;;;;;;12.23;10.50;;;;;;;-139.48;100.00;61774.03;5074591;28;20055;-67
2021/06/12 00:21:02;;;;;;;11.68;10.25;;;;;;;-139.48;100.00;61774.03;5076163;28;20047;-67
2021/06/12 00:23:46;;;;;;;12.98;11.27;;;;;;;-139.48;100.00;61774.03;5074937;28;20047;-67
2021/06/12 00:26:30;;;;;;;14.07;11.98;;;;;;;-139.48;100.00;61774.03;5075497;28;20219;-66
2021/06/12 00:29:14;;;;;;;17.52;12.38;;;;;;;-139.48;100.00;61774.03;5074502;28;20102;-67
2021/06/12 00:31:57;;;;;;;14.80;11.82;;;;;;;-139.48;100.00;61774.03;5074987;28;20083;-66
2021/06/12 00:34:41;;;;;;;16.02;12.25;;;;;;;-139.48;100.00;61774.03;5075482;28;20047;-67
2021/06/12 00:37:25;;;;;;;17.63;13.82;;;;;;;-139.48;100.00;61774.03;5074611;28;20508;-67
2021/06/12 00:40:12;;;;;;;18.83;16.67;;;;;;;-139.48;100.00;61774.03;5074607;28;20507;-67
2021/06/12 00:42:56;;;;;;;16.05;14.32;;;;;;;-139.48;100.00;61774.03;5075304;28;20051;-67
2021/06/12 00:45:45;;;;;;;17.00;14.35;;;;;;;-139.48;100.00;61774.03;5075436;28;20101;-67
2021/06/12 00:48:29;;;;;;;17.80;14.82;;;;;;;-139.48;100.00;61774.03;5075081;28;20093;-67
2021/06/12 00:51:13;;;;;;;16.00;14.15;;;;;;;-139.48;100.00;61774.03;5075418;28;20055;-67
2021/06/12 00:53:57;;;;;;;14.38;12.32;;;;;;;-139.48;100.00;61774.03;5059072;28;20066;-67
2021/06/12 00:56:41;;;;;;;15.63;14.13;;;;;;;-139.48;100.00;61774.03;5074301;28;20040;-67
2021/06/12 00:59:25;;;;;;;19.30;14.02;;;;;;;-139.48;100.00;61774.03;5073865;28;20127;-67
2021/06/12 01:02:09;;;;;;;16.08;14.45;;;;;;;-139.48;100.00;61774.03;5073905;28;20524;-67
2021/06/12 01:04:53;;;;;;;17.15;14.45;;;;;;;-139.48;100.00;61774.03;5075362;28;20043;-66
2021/06/12 01:07:37;;;;;;;17.50;14.27;;;;;;;-139.48;100.00;61774.03;5059798;28;20083;-67
2021/06/12 01:10:21;;;;;;;;;;;;;;;-139.48;100.00;61774.03;5074172;28;20112;-67
2021/06/12 01:13:13;;;;;;;18.37;14.27;;;;;;;-139.48;100.00;61774.03;5073940;28;19918;-67
2021/06/12 01:16:12;;;;;;;20.00;14.98;;;;;;;-139.48;100.00;61774.03;5073865;28;20042;-67
2021/06/12 01:18:57;;;;;;;15.68;13.95;;;;;;;-139.48;100.00;61774.03;5073753;28;20078;-67
2021/06/12 01:21:43;;;;;;;19.77;13.57;;;;;;;-139.48;100.00;61774.03;5059343;28;20141;-64
2021/06/12 01:25:06;;;;;;;17.55;13.27;;;;;;;-139.48;100.00;61774.03;5073662;28;20047;-67
2021/06/12 01:28:05;;;;;;;15.02;12.77;;;;;;;-139.48;100.00;61774.03;5059080;28;20051;-67
2021/06/12 01:30:51;;;;;;;16.05;13.73;;;;;;;-139.48;100.00;61774.03;5074294;28;20093;-67
2021/06/12 01:33:38;;;;;;;18.42;16.50;;;;;;;-139.48;100.00;61774.03;5073502;28;20056;-67
2021/06/12 01:36:22;;;;;;;15.25;13.50;;;;;;;-139.48;100.00;61774.03;5073178;28;20181;-67
2021/06/12 01:39:07;;;;;;;15.93;14.07;;;;;;;-139.48;100.00;61774.03;5074086;28;20048;-67
2021/06/12 01:41:53;;;;;;;25.00;13.13;;;;;;;-139.48;100.00;61774.03;5059005;28;20093;-67
2021/06/12 01:44:38;;;;;;;15.15;13.60;;;;;;;-139.48;100.00;61774.03;5073271;28;20051;-67
2021/06/12 01:47:22;;;;;;;14.27;12.77;;;;;;;-139.48;100.00;61774.03;5073053;28;20547;-67
2021/06/12 01:50:07;;;;;;;14.55;13.20;;;;;;;-139.48;100.00;61774.03;5073181;28;20413;-67
2021/06/12 01:52:54;;;;;;;14.45;12.65;;;;;;;-139.48;100.00;61774.03;5073063;28;20136;-67
2021/06/12 01:55:39;;;;;;;20.83;18.52;;;;;;;-139.48;100.00;61774.03;5072820;28;20050;-67
2021/06/12 01:58:24;;;;;;;15.93;14.20;;;;;;;-139.48;100.00;61774.03;5072938;28;20075;-66
2021/06/12 02:01:11;;;;;;;22.58;18.48;;;;;;;-139.48;100.00;61774.03;5059200;28;20438;-67
2021/06/12 02:03:56;;;;;;;22.38;19.98;;;;;;;-139.48;100.00;61774.03;5072896;28;20051;-66
2021/06/12 02:06:41;;;;;;;17.77;15.23;;;;;;;-139.48;100.00;61774.03;5072834;28;20094;-66
2021/06/12 02:09:25;;;;;;;22.23;15.05;;;;;;;-139.48;100.00;61774.03;5072526;28;20409;-67
2021/06/12 02:12:09;;;;;;;25.30;19.60;;;;;;;-139.48;100.00;61774.03;5073538;28;20129;-67
2021/06/12 02:14:54;;;;;;;24.20;21.65;;;;;;;-139.48;100.00;61774.03;5072837;28;20111;-67
2021/06/12 02:17:39;;;;;;;21.95;19.60;;;;;;;-139.48;100.00;61774.03;5058520;28;20079;-67
2021/06/12 02:20:23;;;;;;;19.23;15.50;;;;;;;-139.48;100.00;61774.03;5072824;28;20109;-67
2021/06/12 02:23:08;;;;;;;21.90;19.48;;;;;;;-139.48;100.00;61774.03;5058569;28;20467;-67
2021/06/12 02:25:52;;;;;;;16.30;14.55;;;;;;;-139.48;100.00;61774.03;5072265;28;20047;-67
2021/06/12 02:28:37;;;;;;;18.45;13.85;;;;;;;-139.48;100.00;61774.03;5072307;28;20078;-67
2021/06/12 02:31:24;;;;;;;15.40;13.88;;;;;;;-139.48;100.00;61774.03;5072660;28;20094;-67
2021/06/12 02:34:08;;;;;;;17.05;13.02;;;;;;;-139.48;100.00;61774.03;5072614;28;20051;-67
2021/06/12 02:36:52;;;;;;;18.52;13.68;;;;;;;-139.48;100.00;61774.03;5073276;28;20154;-67
2021/06/12 02:39:37;;;;;;;15.20;13.15;;;;;;;-139.48;100.00;61774.03;5073287;28;20102;-67
2021/06/12 02:42:21;;;;;;;18.00;14.80;;;;;;;-139.48;100.00;61774.03;5072406;28;20488;-67
2021/06/12 02:45:07;;;;;;;17.52;14.20;;;;;;;-139.48;100.00;61774.03;5072687;28;20063;-67
2021/06/12 02:47:57;;;;;;;18.67;13.68;;;;;;;-139.48;100.00;61774.03;5058093;28;20051;-67
2021/06/12 02:50:44;;;;;;;18.27;14.38;;;;;;;-139.48;100.00;61774.03;5072341;28;20052;-66
2021/06/12 02:53:37;;;;;;;14.68;13.27;;;;;;;-139.48;100.00;61774.03;5072274;28;20047;-67
2021/06/12 02:56:21;;;;;;;13.57;12.27;;;;;;;-139.48;100.00;61774.03;5073614;28;20042;-67
2021/06/12 02:59:08;;;;;;;16.45;12.57;;;;;;;-139.48;100.00;61774.03;5072186;28;20048;-67
2021/06/12 03:01:53;;;;;;;16.75;14.05;;;;;;;-139.48;100.00;61774.03;5072129;28;20105;-67
2021/06/12 03:04:38;;;;;;;17.27;14.40;;;;;;;-139.48;100.00;61774.03;5072206;28;20051;-67
2021/06/12 03:07:23;;;;;;;15.57;13.23;;;;;;;-139.48;100.00;61774.03;5071986;28;20048;-67
2021/06/12 03:10:07;;;;;;;14.63;13.13;;;;;;;-139.48;100.00;61774.03;5072142;28;20048;-67
2021/06/12 03:12:51;;;;;;;16.13;13.70;;;;;;;-139.48;100.00;61774.03;5072179;28;20056;-67
2021/06/12 03:15:36;;;;;;;16.55;13.73;;;;;;;-139.48;100.00;61774.03;5072113;28;20129;-67
2021/06/12 03:18:21;;;;;;;15.02;13.48;;;;;;;-139.48;100.00;61774.03;5061888;28;20043;-67
2021/06/12 03:21:05;;;;;;;17.30;14.95;;;;;;;-139.48;100.00;61774.03;5075790;28;20074;-67
2021/06/12 03:23:53;;;;;;;15.70;13.38;;;;;;;-139.48;100.00;61774.03;5075727;28;20143;-66
2021/06/12 03:26:37;;;;;;;15.80;14.15;;;;;;;-139.48;100.00;61774.03;5075896;28;20079;-67
2021/06/12 03:29:21;;;;;;;23.25;18.35;;;;;;;-139.48;100.00;61774.03;5075554;28;20126;-67
2021/06/12 03:32:05;;;;;;;20.05;16.92;;;;;;;-139.48;100.00;61774.03;5075944;28;20055;-67
2021/06/12 03:34:49;;;;;;;21.60;17.40;;;;;;;-139.48;100.00;61774.03;5061732;28;20051;-67
2021/06/12 03:37:35;;;;;;;19.13;15.13;;;;;;;-139.48;100.00;61774.03;5061364;28;20171;-67
2021/06/12 03:40:19;;;;;;;15.50;13.93;;;;;;;-139.48;100.00;61774.03;5061609;28;20043;-67
2021/06/12 03:43:04;;;;;;;19.25;17.25;;;;;;;-139.48;100.00;61774.03;5076629;28;20052;-67
2021/06/12 03:45:51;;;;;;;19.02;16.65;;;;;;;-139.48;100.00;61774.03;5075210;28;20425;-67
2021/06/12 03:48:38;;;;;;;20.73;18.52;;;;;;;-139.48;100.00;61774.03;5061773;28;20409;-67
2021/06/12 03:51:23;;;;;;;18.33;16.42;;;;;;;-139.48;100.00;61774.03;5075694;28;20109;-67
2021/06/12 03:54:08;;;;;;;16.35;14.05;;;;;;;-139.48;100.00;61774.03;5075370;28;20047;-67
2021/06/12 03:56:52;;;;;;;18.80;15.00;;;;;;;-139.48;100.00;61774.03;5075118;28;20044;-67
2021/06/12 03:59:36;;;;;;;22.05;18.73;;;;;;;-139.48;100.00;61774.03;5075284;28;20051;-66
2021/06/12 04:02:20;;;;;;;21.77;17.77;;;;;;;-139.48;100.00;61774.03;5061306;28;20051;-67
2021/06/12 04:05:05;;;;;;;18.85;15.25;;;;;;;-139.48;100.00;61774.03;5075214;28;20083;-67
2021/06/12 04:07:49;;;;;;;18.98;16.92;;;;;;;-139.48;100.00;61774.03;5075739;28;20052;-67
2021/06/12 04:10:33;;;;;;;17.70;15.95;;;;;;;-139.48;100.00;61774.03;5074979;28;20146;-67
2021/06/12 04:13:17;;;;;;;23.27;19.90;;;;;;;-139.48;100.00;61774.03;5076113;28;20097;-67
2021/06/12 04:16:01;;;;;;;22.25;18.60;;;;;;;-139.48;100.00;61774.03;5075793;28;20075;-67
2021/06/12 04:18:45;;;;;;;23.55;19.23;;;;;;;-139.48;100.00;61774.03;5075655;28;20051;-67
2021/06/12 04:21:28;;;;;;;22.02;19.17;;;;;;;-139.48;100.00;61774.03;5075932;28;20471;-67
2021/06/12 04:24:12;;;;;;;23.92;20.25;;;;;;;-139.48;100.00;61774.03;5076071;28;20133;-67
2021/06/12 04:26:56;;;;;;;21.80;19.55;;;;;;;-139.48;100.00;61774.03;5074614;28;20044;-67
2021/06/12 04:29:40;;;;;;;20.00;17.90;;;;;;;-139.48;100.00;61774.03;5076324;28;20052;-67
2021/06/12 04:32:24;;;;;;;24.88;21.05;;;;;;;-139.48;100.00;61774.03;5075479;28;20047;-67
2021/06/12 04:35:09;;;;;;;22.88;19.48;;;;;;;-139.48;100.00;61774.03;5074648;28;20056;-67
2021/06/12 04:37:53;;;;;;;;;;;;;;;-139.48;100.00;61774.03;5074920;28;20047;-67
2021/06/12 04:40:37;;;;;;;;;;;;;;;-139.48;100.00;61774.03;5075734;28;19935;-66
2021/06/12 04:43:21;;;;;;;21.67;19.30;;;;;;;-139.48;100.00;61774.03;5075295;28;19920;-67
2021/06/12 04:46:07;;;;;;;22.02;19.65;;;;;;;-139.48;100.00;61774.03;5074606;28;20389;-67
2021/06/12 04:48:51;;;;;;;22.70;18.05;;;;;;;-139.48;100.00;61774.03;5074361;28;20097;-65
2021/06/12 04:51:35;;;;;;;21.25;18.45;;;;;;;-139.48;100.00;61774.03;5074259;28;20554;-67
2021/06/12 04:54:19;;;;;;;20.17;18.15;;;;;;;-139.48;100.00;61774.03;5074309;28;20082;-67
2021/06/12 04:57:05;;;;;;;20.23;18.05;;;;;;;-139.48;100.00;61774.03;5074544;28;20075;-66
2021/06/12 04:59:49;;;;;;;22.35;18.42;;;;;;;-139.48;100.00;61774.03;5075183;28;20114;-67
2021/06/12 05:02:33;;;;;;;21.58;18.20;;;;;;;-139.48;100.00;61774.03;5074851;28;20409;-67
2021/06/12 05:05:17;;;;;;;18.48;16.33;;;;;;;-139.48;100.00;61774.03;5074107;28;20478;-67
2021/06/12 05:08:01;;;;;;;23.38;18.15;;;;;;;-139.48;100.00;61774.03;5073922;28;20055;-67
2021/06/12 05:10:45;;;;;;;21.00;18.13;;;;;;;-139.48;100.00;61774.03;5073720;28;20425;-67
2021/06/12 05:13:32;;;;;;;19.30;16.80;;;;;;;-139.48;100.00;61774.03;5073946;28;20109;-67
2021/06/12 05:16:16;;;;;;;19.75;17.63;;;;;;;-139.48;100.00;61774.03;5074870;28;20075;-67
2021/06/12 05:18:59;;;;;;;18.05;16.05;;;;;;;-139.48;100.00;61774.03;5074794;28;20480;-67
2021/06/12 05:21:45;;;;;;;21.25;16.75;;;;;;;-139.48;100.00;61774.03;5059622;28;20554;-66
2021/06/12 05:24:29;;;;;;;18.38;16.48;;;;;;;-139.48;100.00;61774.03;5073425;28;20093;-67
2021/06/12 05:27:13;;;;;;;21.83;16.88;;;;;;;-139.48;100.00;61774.03;5073430;28;20051;-67
2021/06/12 05:29:57;;;;;;;18.55;16.58;;;;;;;-139.48;100.00;61774.03;5074682;28;20090;-67
2021/06/12 05:32:41;;;;;;;19.13;16.05;;;;;;;-139.48;100.00;61774.03;5074213;28;20524;-67
2021/06/12 05:35:24;;;;;;;18.95;15.07;;;;;;;-139.48;100.00;61774.03;5058974;28;20089;-66
2021/06/12 05:38:08;;;;;;;18.33;16.20;;;;;;;-139.48;100.00;61774.03;5073491;28;20093;-67
2021/06/12 05:40:54;;;;;;;17.52;14.30;;;;;;;-139.48;100.00;61774.03;5072687;28;20105;-67
2021/06/12 05:43:38;;;;;;;16.40;14.50;;;;;;;-139.48;100.00;61774.03;5073263;28;20050;-67
2021/06/12 05:46:22;;;;;;;15.20;13.70;;;;;;;-139.48;100.00;61774.03;5073170;28;20123;-67
2021/06/12 05:49:06;;;;;;;;;;;;;;;-139.48;100.00;61774.03;5074156;28;20102;-67
2021/06/12 05:51:50;;;;;;;15.07;12.43;;;;;;;-139.48;100.00;61774.03;5058305;28;19952;-67
2021/06/12 05:54:34;;;;;;;16.23;13.27;;;;;;;-139.48;100.00;61774.03;5072396;28;20133;-67
2021/06/12 05:57:18;;;;;;;23.25;12.38;;;;;;;-139.48;100.00;61774.03;5072024;28;20051;-67
2021/06/12 06:00:04;;;;;;;14.93;13.18;;;;;;;-139.48;100.00;61774.03;5072271;28;20047;-67
2021/06/12 06:02:48;;;;;;;26.60;12.48;;;;;;;-139.48;100.00;61774.03;5058491;28;20047;-67
2021/06/12 06:05:32;;;;;;;12.75;11.45;;;;;;;-139.48;100.00;61774.03;5072210;28;20051;-67
2021/06/12 06:08:16;;;;;;;16.50;10.95;;;;;;;-139.48;100.00;61774.03;5072218;28;20047;-67
2021/06/12 06:11:00;;;;;;;16.27;12.55;;;;;;;-139.48;100.00;61774.03;5071896;28;20147;-67
2021/06/12 06:13:45;;;;;;;14.95;11.60;;;;;;;-139.48;100.00;61774.03;5073170;28;20181;-67
2021/06/12 06:16:29;;;;;;;14.65;11.50;;;;;;;-139.48;100.00;61774.03;5072073;28;20040;-67
2021/06/12 06:19:14;;;;;;;12.70;11.10;;;;;;;-139.48;100.00;61774.03;5071757;28;20051;-67
2021/06/12 06:21:58;;;;;;;13.40;10.25;;;;;;;-139.48;100.00;61774.03;5043335;28;20052;-67
2021/06/12 06:24:42;;;;;;;15.10;9.82;;;;;;;-139.48;100.00;61774.03;5072742;28;20047;-67
2021/06/12 06:27:27;;;;;;;15.00;10.75;;;;;;;-139.48;100.00;61774.03;5071347;28;20052;-67
2021/06/12 06:30:11;;;;;;;;;;;;;;;-139.48;100.00;61774.03;5073300;28;20044;-67
2021/06/12 06:32:55;;;;;;;15.05;9.20;;;;;;;-139.48;100.00;61774.03;5071746;28;19919;-67
2021/06/12 06:35:39;;;;;;;11.70;8.70;;;;;;;-139.48;100.00;61774.03;5073094;28;20108;-67
2021/06/12 06:38:23;;;;;;;12.23;8.18;;;;;;;-139.48;100.00;61774.03;5071622;28;20099;-67
2021/06/12 06:41:08;;;;;;;13.25;7.82;;;;;;;-139.48;100.00;61774.03;5071982;28;20047;-67
2021/06/12 06:43:52;;;;;;;14.15;8.10;;;;;;;-139.48;100.00;61774.03;5071659;28;20050;-68
2021/06/12 06:46:36;;;;;;;8.13;6.88;;;;;;;-139.48;100.00;61774.03;5071604;28;20098;-67
2021/06/12 06:49:20;;;;;;;9.77;7.15;;;;;;;-139.48;100.00;61774.03;5071586;28;20094;-67
2021/06/12 06:52:04;;;;;;;7.90;6.63;;;;;;;-139.48;100.00;61774.03;5071813;28;20417;-67
2021/06/12 06:54:48;;;;;;;9.13;6.53;;;;;;;-139.48;100.00;61774.03;5071662;28;20145;-67
2021/06/12 06:57:32;;;;;;;8.90;6.13;;;;;;;-139.48;100.00;61774.03;5071791;28;20551;-67
2021/06/12 07:00:16;;;;;;;8.95;6.00;;;;;;;-139.48;100.00;61774.03;5071405;28;20074;-67
2021/06/12 07:03:01;;;;;;;;;;;;;;;-139.48;100.00;61774.03;5057779;28;20136;-67
2021/06/12 07:05:45;;;;;;;;;;;;;;;-139.48;100.00;61774.03;5072163;28;19962;-67
2021/06/12 07:08:29;;;;;;;8.00;5.60;;;;;;;-139.48;100.00;61774.03;5071600;28;19923;-67
2021/06/12 07:11:13;;;;;;;6.95;6.25;;;;;;;-139.48;100.00;61774.03;5072786;28;20063;-66
2021/06/12 07:13:57;;;;;;;11.75;5.43;;;;;;;-139.48;100.00;61774.03;5071490;28;20039;-67
2021/06/12 07:16:41;;;;;;;8.35;5.30;;;;;;;-139.48;100.00;61774.03;5072351;28;20043;-67
2021/06/12 07:19:25;;;;;;;6.22;5.63;;;;;;;-139.48;100.00;61774.03;5071094;28;20102;-67
2021/06/12 07:22:08;;;;;;;6.50;5.85;;;;;;;-139.48;100.00;61774.03;5072526;28;20055;-67
2021/06/12 07:24:52;;;;;;;7.60;6.07;;;;;;;-139.48;100.00;61774.03;5071118;28;20177;-67
2021/06/12 07:27:36;;;;;;;6.85;6.15;;;;;;;-139.48;100.00;61774.03;5071868;28;20063;-67
2021/06/12 07:30:20;;;;;;;;;;;;;;;-139.48;100.00;61774.03;5057713;28;20476;-67
2021/06/12 07:33:06;;;;;;;9.20;6.20;;;;;;;-139.48;100.00;61774.03;5071077;28;20364;-67
2021/06/12 07:35:50;;;;;;;7.50;5.68;;;;;;;-139.48;100.00;61774.03;5070956;28;20055;-67
2021/06/12 07:38:34;;;;;;;6.85;5.68;;;;;;;-139.48;100.00;61774.03;5056863;28;20043;-67
2021/06/12 07:41:18;;;;;;;;;;;;;;;-139.48;100.00;61774.03;5072634;28;20405;-67
2021/06/12 07:44:03;;;;;;;5.67;5.03;;;;;;;-139.48;100.00;61774.03;5071179;28;20342;-67
2021/06/12 07:46:47;;;;;;;9.05;6.55;;;;;;;-139.48;100.00;61774.03;5071111;28;20418;-67
2021/06/12 07:49:31;;;;;;;7.68;6.25;;;;;;;-139.48;100.00;61774.03;5071802;28;20055;-67
2021/06/12 07:52:15;;;;;;;7.80;6.30;;;;;;;-139.48;100.00;61774.03;5071190;28;20043;-67
2021/06/12 07:54:59;;;;;;;7.38;5.93;;;;;;;-139.48;100.00;61774.03;5070753;28;20052;-67
2021/06/12 07:57:43;;;;;;;;;;;;;;;-139.48;100.00;61774.03;5072379;28;20043;-67
2021/06/12 08:00:27;;;;;;;7.27;6.57;;;;;;;-139.48;100.00;61774.03;5071356;28;19935;-67
2021/06/12 08:03:11;;;;;;;;;;;;;;;-139.48;100.00;61774.03;5073765;28;20396;-67
2021/06/12 08:05:55;;;;;;;7.30;5.80;;;;;;;-139.48;100.00;61774.03;5060403;28;19919;-67
2021/06/12 08:08:39;;;;;;;7.63;6.05;;;;;;;-139.48;100.00;61774.03;5073893;28;20269;-67
2021/06/12 08:11:23;;;;;;;12.23;6.38;;;;;;;-139.48;100.00;61774.03;5059647;28;20052;-67
2021/06/12 08:14:07;;;;;;;8.57;6.20;;;;;;;-139.48;100.00;61774.03;5074049;28;20377;-68
2021/06/12 08:16:51;;;;;;;6.90;6.20;;;;;;;-139.48;100.00;61774.03;5059625;28;20580;-68
2021/06/12 08:19:36;;;;;;;7.50;6.35;;;;;;;-139.48;100.00;61774.03;5074895;28;20090;-68
2021/06/12 08:22:20;;;;;;;8.75;6.00;;;;;;;-139.48;100.00;61774.03;5073716;28;20534;-68
2021/06/12 08:25:05;;;;;;;7.72;5.38;;;;;;;-139.48;100.00;61774.03;5059700;28;20492;-68
2021/06/12 08:27:49;;;;;;;8.30;6.40;;;;;;;-139.48;100.00;61774.03;5074187;28;20055;-68
2021/06/12 08:30:35;;;;;;;7.53;5.90;;;;;;;-139.48;100.00;61774.03;5073607;28;20051;-68
2021/06/12 08:33:19;;;;;;;8.73;6.30;;;;;;;-139.48;100.00;61774.03;5059206;28;20177;-67
2021/06/12 08:36:03;;;;;;;;;;;;;;;-139.48;100.00;61774.03;5074061;28;20047;-68
2021/06/12 08:38:48;;;;;;;7.63;5.88;;;;;;;-139.48;100.00;61774.03;5073577;28;19935;-67
2021/06/12 08:41:32;;;;;;;6.82;6.07;;;;;;;-139.48;100.00;61774.03;5059635;28;20052;-68
2021/06/12 08:44:16;;;;;;;;;;;;;;;-139.48;100.00;61774.03;5075339;28;20094;-67
2021/06/12 08:47:00;;;;;;;6.90;6.20;;;;;;;-139.48;100.00;61774.03;5059499;28;19923;-68
2021/06/12 08:49:43;;;;;;;9.20;5.97;;;;;;;-139.48;100.00;61774.03;5059295;28;20055;-68
2021/06/12 08:52:27;;;;;;;6.80;6.10;;;;;;;-139.48;100.00;61774.03;5073380;28;20109;-67
2021/06/12 08:55:11;;;;;;;;;;;;;;;-139.48;100.00;61774.03;5073923;28;20091;-68
2021/06/12 08:57:55;;;;;;;6.47;5.88;;;;;;;-139.48;100.00;61774.03;5073456;28;19931;-67
2021/06/12 09:00:40;;;;;;;7.88;5.75;;;;;;;-139.48;100.00;61774.03;5073196;28;20520;-68
2021/06/12 09:03:28;;;;;;;6.18;5.57;;;;;;;-139.48;100.00;61774.03;5073415;28;20118;-68
2021/06/12 09:06:18;;;;;;;8.80;5.40;;;;;;;-139.48;100.00;61774.03;5074165;28;20055;-67
2021/06/12 09:09:03;;;;;;;6.38;5.28;;;;;;;-139.48;100.00;61774.03;5074391;28;20556;-67
2021/06/12 09:11:51;;;;;;;9.93;5.80;;;;;;;-139.48;100.00;61774.03;5073230;28;20109;-67
2021/06/12 09:14:36;;;;;;;6.45;4.43;;;;;;;-139.48;100.00;61774.03;5072156;28;20047;-67
2021/06/12 09:17:19;;;;;;;;;;;;;;;-139.48;100.00;61774.03;5073331;28;20173;-67
2021/06/12 09:20:04;;;;;;;4.82;4.30;;;;;;;-139.48;100.00;61774.03;5059019;28;20396;-66
2021/06/12 09:23:06;;;;;;;6.75;4.70;;;;;;;-139.48;100.00;61774.03;5073903;28;20073;-67
2021/06/12 09:25:50;;;;;;;9.23;4.18;;;;;;;-139.48;100.00;61774.03;5072664;28;20378;-67
2021/06/12 09:28:53;;;;;;;6.28;3.90;;;;;;;-139.48;100.00;61774.03;5072720;28;20090;-67
2021/06/12 09:31:48;;;;;;;8.65;4.10;;;;;;;-139.48;100.00;61774.03;5072564;28;20047;-67
2021/06/12 09:34:32;;;;;;;16.83;3.92;;;;;;;-139.48;100.00;61774.03;5073693;28;20585;-67
2021/06/12 09:37:19;;;;;;;7.57;4.70;;;;;;;-139.48;100.00;61774.03;5073731;28;20121;-67
2021/06/12 09:40:11;;;;;;;7.90;4.38;;;;;;;-139.48;100.00;61774.03;5072362;28;20106;-66
2021/06/12 09:42:57;;;;;;;7.35;4.30;;;;;;;-139.48;100.00;61774.03;5072589;28;20082;-67
2021/06/12 09:45:40;;;;;;;13.82;4.68;;;;;;;-139.48;100.00;61774.03;5072493;28;20047;-67
2021/06/12 09:48:25;;;;;;;5.38;3.92;;;;;;;-139.48;100.00;61774.03;5073273;28;20569;-68
2021/06/12 09:51:14;;;;;;;4.25;3.38;;;;;;;-139.48;100.00;61774.03;5072705;28;20131;-68
2021/06/12 09:54:01;;;;;;;5.05;3.60;;;;;;;-139.48;100.00;61774.03;5072132;28;20441;-68
2021/06/12 09:56:57;;;;;;;5.72;3.90;;;;;;;-139.48;100.00;61774.03;5072117;28;20052;-68
2021/06/12 09:59:42;;;;;;;5.38;3.35;;;;;;;-139.48;100.00;61774.03;5071925;28;20583;-68
2021/06/12 10:02:41;;;;;;;7.72;3.88;;;;;;;-139.48;100.00;61774.03;5072347;28;20055;-69
2021/06/12 10:05:27;;;;;;;4.68;3.20;;;;;;;-139.48;100.00;61774.03;5073457;28;20104;-68
2021/06/12 10:08:13;;;;;;;3.28;2.80;;;;;;;-139.48;100.00;61774.03;5072967;28;20066;-68
2021/06/12 10:10:57;;;;;;;8.45;3.50;;;;;;;-139.48;100.00;61774.03;5073109;28;20547;-68
2021/06/12 10:13:44;;;;;;;;;;;;;;;-139.48;100.00;61774.03;5072258;28;20047;-68
2021/06/12 10:16:31;;;;;;;5.88;2.88;;;;;;;-139.48;100.00;61774.03;5072181;28;19970;-68
2021/06/12 10:19:17;;;;;;;13.63;3.90;;;;;;;-139.48;100.00;61774.03;5071614;28;20380;-68
2021/06/12 10:22:00;;;;;;;5.82;2.85;;;;;;;-139.48;100.00;61774.03;5057522;28;20056;-68
2021/06/12 10:24:44;;;;;;;4.30;2.92;;;;;;;-139.48;100.00;61774.03;5071661;28;20047;-68
2021/06/12 10:27:29;;;;;;;4.85;2.90;;;;;;;-139.48;100.00;61774.03;5071477;28;20508;-68
2021/06/12 10:30:15;;;;;;;48.03;8.48;;;;;;;-139.48;100.00;61774.03;5073441;28;20109;-67
2021/06/12 10:32:59;;;;;;;3.83;2.97;;;;;;;-139.48;100.00;61774.03;5057419;28;20055;-69
2021/06/12 10:35:43;;;;;;;5.00;2.78;;;;;;;-139.48;100.00;61774.03;5071712;28;20115;-69
2021/06/12 10:38:30;;;;;;;4.57;2.83;;;;;;;-139.48;100.00;61774.03;5071875;28;20090;-69
2021/06/12 10:41:25;;;;;;;4.65;3.13;;;;;;;-139.48;100.00;61774.03;5072492;28;20106;-66
2021/06/12 10:44:09;;;;;;;3.58;3.10;;;;;;;-139.48;100.00;61774.03;5057443;28;20051;-68
2021/06/12 10:46:53;;;;;;;6.70;2.88;;;;;;;-139.48;100.00;61774.03;5057540;28;20047;-68
2021/06/12 10:49:37;;;;;;;6.38;2.92;;;;;;;-139.48;100.00;61774.03;5071678;28;20043;-69
2021/06/12 10:52:41;;;;;;;2.58;2.38;;;;;;;-139.48;100.00;61774.03;5072425;28;20124;-69
2021/06/12 10:55:41;;;;;;;5.28;2.83;;;;;;;-139.48;100.00;61774.03;5071568;28;20413;-68
2021/06/12 10:58:31;;;;;;;4.00;2.60;;;;;;;-139.48;100.00;61774.03;5071376;28;20048;-69
2021/06/12 11:01:20;;;;;;;3.13;2.47;;;;;;;-139.48;100.00;61774.03;5072874;28;20194;-69
2021/06/12 11:04:14;;;;;;;3.65;2.40;;;;;;;-139.48;100.00;61774.03;5071570;28;20098;-68
2021/06/12 11:07:00;;;;;;;2.45;2.10;;;;;;;-139.48;100.00;61774.03;5071380;28;20055;-68
2021/06/12 11:09:45;;;;;;;2.80;2.15;;;;;;;-139.48;100.00;61774.03;5071185;28;20102;-67
2021/06/12 11:12:30;;;;;;;4.55;2.00;;;;;;;-139.48;100.00;61774.03;5071664;28;20051;-66
2021/06/12 11:15:34;;;;;;;2.67;2.00;;;;;;;-139.48;100.00;61774.03;5072247;28;20055;-68
2021/06/12 11:18:22;;;;;;;2.63;2.00;;;;;;;-139.48;100.00;61774.03;5071159;28;20051;-66
2021/06/12 11:21:07;;;;;;;2.00;1.80;;;;;;;-139.48;100.00;61774.03;5071814;28;20128;-68
2021/06/12 11:23:56;;;;;;;3.72;1.95;;;;;;;-139.48;100.00;61774.03;5071229;28;20052;-68
2021/06/12 11:26:58;;;;;;;2.80;2.20;;;;;;;-139.48;100.00;61774.03;5071402;28;20051;-67
2021/06/12 11:30:23;;;;;;;2.40;1.90;;;;;;;-139.48;100.00;61774.03;5070991;28;20051;-68
2021/06/12 11:33:08;;;;;;;2.17;1.98;;;;;;;-139.48;100.00;61774.03;5072087;28;20143;-67
2021/06/12 11:36:01;;;;;;;2.13;1.80;;;;;;;-139.48;100.00;61774.03;5071896;28;20047;-67
2021/06/12 11:38:48;;;;;;;;;;;;;;;-139.48;100.00;61774.03;5074438;28;20405;-68
2021/06/12 11:41:32;;;;;;;1.85;1.70;;;;;;;-139.48;100.00;61774.03;5061192;28;19939;-68
2021/06/12 11:44:16;;;;;;;1.90;1.80;;;;;;;-139.48;100.00;61774.03;5075016;28;20118;-68
2021/06/12 11:47:00;;;;;;;1.85;1.67;;;;;;;-139.48;100.00;61774.03;5074487;28;20067;-68
2021/06/12 11:49:48;;;;;;;3.88;1.83;;;;;;;-139.48;100.00;61774.03;5075780;28;20453;-67
2021/06/12 11:52:41;;;;;;;2.88;1.83;;;;;;;-139.48;100.00;61774.03;5074541;28;20071;-68
2021/06/12 11:55:27;;;;;;;2.33;1.57;;;;;;;-139.48;100.00;61774.03;5060772;28;20071;-68
2021/06/12 11:58:11;;;;;;;4.18;1.75;;;;;;;-139.48;100.00;61774.03;5074625;28;20089;-68
2021/06/12 12:00:55;;;;;;;6.35;1.98;;;;;;;-139.48;100.00;61774.03;5074429;28;20123;-68
2021/06/12 12:03:39;;;;;;;4.15;1.73;;;;;;;-139.48;100.00;61774.03;5074729;28;20131;-68
2021/06/12 12:06:23;;;;;;;13.85;2.22;;;;;;;-139.48;100.00;61774.03;5074432;28;20554;-68
2021/06/12 12:09:07;;;;;;;2.42;1.73;;;;;;;-139.48;100.00;61774.03;5074290;28;20056;-68
2021/06/12 12:11:53;;;;;;;4.32;1.60;;;;;;;-139.48;100.00;61774.03;5060331;28;20083;-68
2021/06/12 12:14:38;;;;;;;2.72;1.30;;;;;;;-139.48;100.00;61774.03;5074215;28;20055;-67
2021/06/12 12:17:24;;;;;;;7.07;1.38;;;;;;;-139.48;100.00;61774.03;5074101;28;20098;-68
2021/06/12 12:20:10;;;;;;;5.25;1.20;;;;;;;-139.48;100.00;61774.03;5075114;28;20110;-69
2021/06/12 12:22:54;;;;;;;4.15;1.45;;;;;;;-139.48;100.00;61774.03;5060147;28;20048;-68
2021/06/12 12:25:39;;;;;;;2.33;1.30;;;;;;;-139.48;100.00;61774.03;5060018;28;20473;-69
2021/06/12 12:28:25;;;;;;;1.83;1.02;;;;;;;-139.48;100.00;61774.03;5073852;28;20060;-68